Josephine Anne — WDD9858 — position and weather

sailwx.info

Track history (hours):
 
Tides and Currents Weather Stations Pressure Air Temp Water Temp Dewpoint Dewpoint Depression Visibility Wind Speed Wind Dir Waves Ship Positions

Josephine Anne

Owner: E.N. Bisso & Son, Inc., Metairie, LA. More information available from US FCC via Universal Licensing System and Coast Guard Vessel Documentation Center.

Last reported at 2014-Nov-26 17:14 UTC. Time now 2014-Nov-26 18:39 UTC.
Position N 29°55' W 090°04'.

Length 29 m; draft 4.3 m.

Type: Tug. MMSI: 367317270.

Date/timePositionNaut miles runAvg speedWind from/ knotsBaromVisibWave heightAir tempDewpointWater temp
2014-Nov-26 17:14N 29°55' W 090°04'0 0.0
2014-Nov-26 03:25N 29°55' W 090°04'2 1.9
2014-Nov-26 02:27N 29°57' W 090°04'2 2.5
2014-Nov-26 01:31N 29°57' W 090°01'2 2.3
2014-Nov-26 00:28N 29°57' W 090°04'4 2.1
2014-Nov-25 22:28N 29°55' W 090°08'0 0.1
2014-Nov-25 21:11N 29°56' W 090°08'1 2.3
2014-Nov-25 20:33N 29°55' W 090°07'0 0.0
2014-Nov-25 19:33N 29°55' W 090°07'0 0.0
2014-Nov-25 18:33N 29°55' W 090°07'0 0.0
2014-Nov-25 17:31N 29°55' W 090°07'0 0.0
2014-Nov-25 16:11N 29°55' W 090°07'1 0.1
2014-Nov-24 18:30N 29°56' W 090°08'0 0.0
2014-Nov-24 17:10N 29°56' W 090°08'0 0.0
2014-Nov-24 16:19N 29°56' W 090°08'0 0.1
2014-Nov-24 14:19N 29°55' W 090°08'4 5.9
2014-Nov-24 13:33N 29°57' W 090°03'1 1.2
2014-Nov-24 12:33N 29°58' W 090°02'0 0.0
2014-Nov-24 11:33N 29°58' W 090°02'0 0.0
2014-Nov-24 10:33N 29°58' W 090°02'0 0.0
2014-Nov-24 09:29N 29°58' W 090°02'0 0.0
2014-Nov-24 08:33N 29°58' W 090°02'0 0.0
2014-Nov-24 07:30N 29°58' W 090°02'1 0.1
2014-Nov-23 12:33N 29°57' W 090°01'0 0.0
2014-Nov-23 11:24N 29°57' W 090°01'0 0.0
2014-Nov-23 10:33N 29°57' W 090°01'0 0.0
2014-Nov-23 09:29N 29°57' W 090°01'0 0.0
2014-Nov-23 08:29N 29°57' W 090°01'0 0.0
2014-Nov-23 07:31N 29°57' W 090°01'0 0.0
2014-Nov-23 06:24N 29°57' W 090°01'0 0.0
2014-Nov-23 05:32N 29°57' W 090°01'0 0.0
2014-Nov-23 04:31N 29°57' W 090°01'0 0.0
2014-Nov-23 03:33N 29°57' W 090°01'2 1.9
2014-Nov-23 02:32N 29°56' W 089°59'1 0.6
2014-Nov-23 01:20N 29°56' W 089°59'2 0.4
2014-Nov-22 19:33N 29°57' W 090°01'6 0.3
2014-Nov-21 19:09N 29°55' W 090°08'2 3.2
2014-Nov-21 18:28N 29°55' W 090°05'3 2.9
2014-Nov-21 17:31N 29°57' W 090°04'0 0.0
2014-Nov-21 16:22N 29°57' W 090°04'0 0.0
2014-Nov-21 15:33N 29°57' W 090°04'0 0.0
2014-Nov-21 14:11N 29°57' W 090°04'2 0.1
2014-Nov-20 16:05N 29°57' W 090°01'3 3.3
2014-Nov-20 15:16N 29°56' W 089°59'4 2.2
2014-Nov-20 13:17N 29°56' W 090°04'4 2.1
2014-Nov-20 11:25N 29°55' W 090°08'0 0.0
2014-Nov-20 10:33N 29°55' W 090°08'0 0.0
2014-Nov-20 09:25N 29°55' W 090°08'0 0.0
2014-Nov-20 08:30N 29°55' W 090°08'0 0.0
2014-Nov-20 07:33N 29°55' W 090°08'6 5.6
2014-Nov-20 06:32N 29°57' W 090°02'3 2.9
2014-Nov-20 05:29N 29°56' W 089°59'0 0.4
2014-Nov-20 04:32N 29°56' W 089°59'1 0.9
2014-Nov-20 03:33N 29°56' W 089°58'2 1.6
2014-Nov-20 02:31N 29°55' W 089°57'0 0.2
2014-Nov-20 01:29N 29°55' W 089°57'0 0.0
2014-Nov-20 00:28N 29°55' W 089°57'4 2.6
2014-Nov-19 23:08N 29°57' W 090°00'7 2.7
2014-Nov-19 20:29N 29°56' W 090°08'1 0.2
2014-Nov-19 16:10N 29°55' W 090°08'0 0.0
2014-Nov-19 15:32N 29°55' W 090°08'0 0.0
2014-Nov-19 14:29N 29°55' W 090°08'0 0.0
2014-Nov-19 13:32N 29°55' W 090°08'0 0.0
2014-Nov-19 12:27N 29°55' W 090°08'1 1.0
2014-Nov-19 11:34N 29°56' W 090°09'1 0.7
2014-Nov-19 10:16N 29°55' W 090°08'2 0.1
2014-Nov-18 10:30N 29°55' W 090°06'5 4.7
2014-Nov-18 09:31N 29°57' W 090°01'0 0.0
2014-Nov-18 08:30N 29°57' W 090°01'2 1.6
2014-Nov-18 07:30N 29°56' W 089°59'2 1.7
2014-Nov-18 06:32N 29°57' W 090°01'0 0.0
2014-Nov-18 05:32N 29°57' W 090°01'0 0.0
2014-Nov-18 04:30N 29°57' W 090°01'0 0.1
2014-Nov-17 23:32N 29°57' W 090°01'4 4.5
2014-Nov-17 22:32N 29°55' W 090°05'1 1.3
2014-Nov-17 21:26N 29°56' W 090°04'3 2.3
2014-Nov-17 20:07N 29°57' W 090°01'7 0.5
2014-Nov-17 05:33N 29°55' W 090°08'1 0.7
2014-Nov-17 04:29N 29°56' W 090°09'1 0.8
2014-Nov-17 03:31N 29°55' W 090°08'0 0.0
2014-Nov-17 02:28N 29°55' W 090°08'6 6.8
2014-Nov-17 01:33N 29°57' W 090°01'0 0.0
2014-Nov-17 00:33N 29°57' W 090°01'0 0.3
2014-Nov-16 23:33N 29°57' W 090°02'0 0.3
2014-Nov-16 22:32N 29°57' W 090°01'0 0.0
2014-Nov-16 21:32N 29°57' W 090°01'0 0.0
2014-Nov-16 20:32N 29°57' W 090°01'1 0.9
2014-Nov-16 19:31N 29°57' W 090°00'1 0.9
2014-Nov-16 18:30N 29°57' W 090°01'  
Track history (hours):
 
Tides and Currents Weather Stations Pressure Air Temp Water Temp Dewpoint Dewpoint Depression Visibility Wind Speed Wind Dir Waves Ship Positions

Josephine Anne

Owner: E.N. Bisso & Son, Inc., Metairie, LA. More information available from US FCC via Universal Licensing System and Coast Guard Vessel Documentation Center.

Last reported at 2014-Nov-26 17:14 UTC. Time now 2014-Nov-26 18:39 UTC.
Position N 29°55' W 090°04'.

Length 29 m; draft 4.3 m.

Type: Tug. MMSI: 367317270.

Date/timePositionNaut miles runAvg speedWind from/ knotsBaromVisibWave heightAir tempDewpointWater temp
2014-Nov-26 17:14N 29°55' W 090°04'0 0.0
2014-Nov-26 03:25N 29°55' W 090°04'2 1.9
2014-Nov-26 02:27N 29°57' W 090°04'2 2.5
2014-Nov-26 01:31N 29°57' W 090°01'2 2.3
2014-Nov-26 00:28N 29°57' W 090°04'4 2.1
2014-Nov-25 22:28N 29°55' W 090°08'0 0.1
2014-Nov-25 21:11N 29°56' W 090°08'1 2.3
2014-Nov-25 20:33N 29°55' W 090°07'0 0.0
2014-Nov-25 19:33N 29°55' W 090°07'0 0.0
2014-Nov-25 18:33N 29°55' W 090°07'0 0.0
2014-Nov-25 17:31N 29°55' W 090°07'0 0.0
2014-Nov-25 16:11N 29°55' W 090°07'1 0.1
2014-Nov-24 18:30N 29°56' W 090°08'0 0.0
2014-Nov-24 17:10N 29°56' W 090°08'0 0.0
2014-Nov-24 16:19N 29°56' W 090°08'0 0.1
2014-Nov-24 14:19N 29°55' W 090°08'4 5.9
2014-Nov-24 13:33N 29°57' W 090°03'1 1.2
2014-Nov-24 12:33N 29°58' W 090°02'0 0.0
2014-Nov-24 11:33N 29°58' W 090°02'0 0.0
2014-Nov-24 10:33N 29°58' W 090°02'0 0.0
2014-Nov-24 09:29N 29°58' W 090°02'0 0.0
2014-Nov-24 08:33N 29°58' W 090°02'0 0.0
2014-Nov-24 07:30N 29°58' W 090°02'1 0.1
2014-Nov-23 12:33N 29°57' W 090°01'0 0.0
2014-Nov-23 11:24N 29°57' W 090°01'0 0.0
2014-Nov-23 10:33N 29°57' W 090°01'0 0.0
2014-Nov-23 09:29N 29°57' W 090°01'0 0.0
2014-Nov-23 08:29N 29°57' W 090°01'0 0.0
2014-Nov-23 07:31N 29°57' W 090°01'0 0.0
2014-Nov-23 06:24N 29°57' W 090°01'0 0.0
2014-Nov-23 05:32N 29°57' W 090°01'0 0.0
2014-Nov-23 04:31N 29°57' W 090°01'0 0.0
2014-Nov-23 03:33N 29°57' W 090°01'2 1.9
2014-Nov-23 02:32N 29°56' W 089°59'1 0.6
2014-Nov-23 01:20N 29°56' W 089°59'2 0.4
2014-Nov-22 19:33N 29°57' W 090°01'6 0.3
2014-Nov-21 19:09N 29°55' W 090°08'2 3.2
2014-Nov-21 18:28N 29°55' W 090°05'3 2.9
2014-Nov-21 17:31N 29°57' W 090°04'0 0.0
2014-Nov-21 16:22N 29°57' W 090°04'0 0.0
2014-Nov-21 15:33N 29°57' W 090°04'0 0.0
2014-Nov-21 14:11N 29°57' W 090°04'2 0.1
2014-Nov-20 16:05N 29°57' W 090°01'3 3.3
2014-Nov-20 15:16N 29°56' W 089°59'4 2.2
2014-Nov-20 13:17N 29°56' W 090°04'4 2.1
2014-Nov-20 11:25N 29°55' W 090°08'0 0.0
2014-Nov-20 10:33N 29°55' W 090°08'0 0.0
2014-Nov-20 09:25N 29°55' W 090°08'0 0.0
2014-Nov-20 08:30N 29°55' W 090°08'0 0.0
2014-Nov-20 07:33N 29°55' W 090°08'6 5.6
2014-Nov-20 06:32N 29°57' W 090°02'3 2.9
2014-Nov-20 05:29N 29°56' W 089°59'0 0.4
2014-Nov-20 04:32N 29°56' W 089°59'1 0.9
2014-Nov-20 03:33N 29°56' W 089°58'2 1.6
2014-Nov-20 02:31N 29°55' W 089°57'0 0.2
2014-Nov-20 01:29N 29°55' W 089°57'0 0.0
2014-Nov-20 00:28N 29°55' W 089°57'4 2.6
2014-Nov-19 23:08N 29°57' W 090°00'7 2.7
2014-Nov-19 20:29N 29°56' W 090°08'1 0.2
2014-Nov-19 16:10N 29°55' W 090°08'0 0.0
2014-Nov-19 15:32N 29°55' W 090°08'0 0.0
2014-Nov-19 14:29N 29°55' W 090°08'0 0.0
2014-Nov-19 13:32N 29°55' W 090°08'0 0.0
2014-Nov-19 12:27N 29°55' W 090°08'1 1.0
2014-Nov-19 11:34N 29°56' W 090°09'1 0.7
2014-Nov-19 10:16N 29°55' W 090°08'2 0.1
2014-Nov-18 10:30N 29°55' W 090°06'5 4.7
2014-Nov-18 09:31N 29°57' W 090°01'0 0.0
2014-Nov-18 08:30N 29°57' W 090°01'2 1.6
2014-Nov-18 07:30N 29°56' W 089°59'2 1.7
2014-Nov-18 06:32N 29°57' W 090°01'0 0.0
2014-Nov-18 05:32N 29°57' W 090°01'0 0.0
2014-Nov-18 04:30N 29°57' W 090°01'0 0.1
2014-Nov-17 23:32N 29°57' W 090°01'4 4.5
2014-Nov-17 22:32N 29°55' W 090°05'1 1.3
2014-Nov-17 21:26N 29°56' W 090°04'3 2.3
2014-Nov-17 20:07N 29°57' W 090°01'7 0.5
2014-Nov-17 05:33N 29°55' W 090°08'1 0.7
2014-Nov-17 04:29N 29°56' W 090°09'1 0.8
2014-Nov-17 03:31N 29°55' W 090°08'0 0.0
2014-Nov-17 02:28N 29°55' W 090°08'6 6.8
2014-Nov-17 01:33N 29°57' W 090°01'0 0.0
2014-Nov-17 00:33N 29°57' W 090°01'0 0.3
2014-Nov-16 23:33N 29°57' W 090°02'0 0.3
2014-Nov-16 22:32N 29°57' W 090°01'0 0.0
2014-Nov-16 21:32N 29°57' W 090°01'0 0.0
2014-Nov-16 20:32N 29°57' W 090°01'1 0.9
2014-Nov-16 19:31N 29°57' W 090°00'1 0.9
2014-Nov-16 18:30N 29°57' W 090°01'  

Dump ship's entire track history